Tiempo atmosférico en la estación meteorológica de Valderredible, Cubillo de Ebro, Cantabria (765 m.)



Fecha
DESCASC
Temp. máxima en grados centígrados (hora)
DESCASC
Temp. mínima en grados centígrados (hora)
DESCASC
Temp. media en grados centígrados
DESCASC
Racha de viento máxima en m/sg (hora)
DESCASC
Velocidad máxima media en intervalos de 10 minutos(hora)
DESCASC
Precipitaciones diarias en mm
DESCASC
Precipitaciones de 00:00 a 06:00 en mm
DESCASC
Precipitaciones de 06:00 a 12:00 en mm
DESCASC
Precipitaciones de 12:00 a 18:00 en mm
DESCASC
Precipitaciones de 18:00 a 24:00 en mm
DESCASC
24-01-2021 9.5 (16:50) -0.4 (09:00) 4.5 13.33 (17:40) 8.06 (13:10) 0.6 0.6 0 0 0
23-01-2021 8.6 (21:20) 3.4 (01:10) 6 17.5 (13:20) 8.33 (05:10) 3.2 0 0.2 2.6 0.4
22-01-2021 9.1 (16:20) 2.7 (19:20) 5.9 23.61 (03:50) 12.22 (04:50) 10.4 9.8 0.4 0.2 0
21-01-2021 10.5 (16:40) 7.2 (00:00) 8.8 21.11 (12:10) 11.39 (12:10) 1.8 0 0.2 1.2 0.4
20-01-2021 9 (15:20) 3 (00:00) 6 22.78 (13:40) 10.28 (13:40) 2 0 1.6 0.2 0.2
19-01-2021 10.2 (14:50) -4 (-00:0) 3.1 9.17 (16:20) 5.56 (15:10) 0 0 0 0 0
18-01-2021 11.8 (16:00) -2 (-00:0) 4.9 5.56 (23:20) 3.06 (17:10) 0 0 0 0 0
17-01-2021 8.9 (14:50) -6.2 (-00:0) 1.3 3.61 (00:30) 2.22 (02:30) 0 0 0 0 0
16-01-2021 11.6 (16:30) -4.4 (-00:0) 3.6 3.89 (21:30) 2.78 (17:00) 0 0 0 0 0
15-01-2021 8.4 (14:40) -3.7 (-00:0) 2.3 7.5 (13:20) 3.89 (13:20) 0 0 0 0 0
14-01-2021 2.7 (15:20) -9.1 (08:00) -3.2 4.44 (17:10) 3.33 (16:50) 0 0 0 0 0
13-01-2021 7.3 (15:40) -6.6 (-00:0) 0.4 4.17 (09:20) 2.78 (09:20) 0 0 0 0 0
12-01-2021 7.4 (16:10) -7.6 (-00:0) -0.1 3.89 (05:50) 2.5 (06:00) 0 0 0 0 0
11-01-2021 2.4 (13:20) -4.1 (-00:0) -0.8 10 (08:00) 4.44 (04:20) 0 0 0 0 0
10-01-2021 1.2 (15:00) -0.6 (00:00) 0.3 11.94 (14:00) 5.28 (10:40) 0 0 0 0 0
09-01-2021 -0.3 (12:00) -2.9 (-00:0) -1.6 10.28 (11:10) 4.44 (11:30) 1.6 0 0 1.2 0.4
08-01-2021 1.3 (13:20) -7.2 (-00:0) -2.9 7.5 (16:40) 3.61 (14:40) 0 0 0 0 0
07-01-2021 -0.1 (16:20) -10.1 (-00:0) -5.1 3.33 (16:20) 2.22 (15:30) 0 0 0 0 0
06-01-2021 6.1 (16:00) -6.9 (-00:0) -0.4 3.89 (16:20) 2.22 (16:40) 0 0 0 0 0
05-01-2021 4.2 (16:00) -6.1 (-00:0) -1 3.61 (14:30) 2.5 (14:20) 0 0 0 0 0
04-01-2021 2.2 (15:50) -8.6 (-00:0) -3.2 4.44 (16:20) 2.5 (16:40) 2.8 0 0.6 2 0.2
03-01-2021 4.6 (15:20) -4.1 (-00:0) 0.3 6.67 (17:20) 3.33 (17:20) 1.2 0.8 0 0.2 0.2
02-01-2021 1.1 (13:20) -2 (-00:0) -0.4 11.67 (01:50) 5 (03:10) 14.6 3.8 2 8.4 0.4
01-01-2021 2.7 (12:40) -3.7 (-00:0) -0.5 11.39 (16:20) 6.11 (16:20) 4.2 0.2 0 0.4 3.6
31-12-2020 6.8 (14:20) -0.2 (00:00) 3.3 11.39 (14:00) 6.67 (14:00) 1.2 0 0 0.2 1
30-12-2020 4.6 (15:20) -3.4 (-00:0) 0.6 7.22 (15:20) 4.17 (15:50) 0 0 0 0 0
29-12-2020 7 (14:30) -2.7 (-00:0) 2.1 8.89 (15:50) 5.28 (11:20) 0.2 0.2 0 0 0
28-12-2020 7.8 (15:50) 0.3 (00:00) 4.1 15 (16:40) 9.72 (17:00) 3 2.4 0 0.6 0
27-12-2020 5.7 (22:40) -3.5 (-00:0) 1.1 19.17 (20:50) 9.17 (23:20) 1.2 0 0 0 1.2
26-12-2020 5.4 (15:10) -3.5 (-00:0) 1 5.83 (00:40) 2.78 (17:20) 1.8 0.4 1.2 0.2 0

Gráficas

Temp. máximas Temp. mínimas Temp. medias Precipitaciones Rachas de viento máximas Velocidades máximas media en intervalos de 10 minutos

Datos horarios

Fecha y hora oficial Temperatura (ºC) Velocidad del viento (km/h) Dirección del viento Racha (km/h) Dirección de racha Precipitación (mm) Presión (hPa) Tendencia (hPa) Humedad (%)
2021-01-24 23:00:00 6.9 8 Noroeste 18 Oeste 0 -- -- 77
2021-01-24 22:00:00 7.1 5 Oeste 19 Sudoeste 0 -- -- 79
2021-01-24 21:00:00 7.4 10 Oeste 29 Sudoeste 0 -- -- 79
2021-01-24 20:00:00 7.5 11 Sudoeste 31 Sudoeste 0 -- -- 78
2021-01-24 19:00:00 7.8 15 Sudoeste 35 Sudoeste 0 -- -- 74
2021-01-24 18:00:00 8.2 18 Oeste 48 Oeste 0 -- -- 72
2021-01-24 17:00:00 9.3 24 Sudoeste 36 Sudoeste 0 -- -- 63
2021-01-24 16:00:00 8.7 16 Oeste 39 Sudoeste 0 -- -- 65
2021-01-24 15:00:00 8 23 Oeste 44 Oeste 0 -- -- 67
2021-01-24 14:00:00 8.3 22 Oeste 43 Oeste 0 -- -- 66
2021-01-24 13:00:00 8.4 27 Oeste 44 Sudoeste 0 -- -- 70
2021-01-24 12:00:00 7.3 8 Oeste 21 Oeste 0 -- -- 74
2021-01-24 11:00:00 4.3 3 Sudoeste 5 Oeste 0 -- -- 90
2021-01-24 10:00:00 0.9 3 Oeste 7 Noroeste 0 -- -- 97
2021-01-24 09:00:00 -0.4 2 Noroeste 5 Noroeste 0 -- -- 95
2021-01-24 08:00:00 0.6 2 Este 8 Oeste 0 -- -- 94
2021-01-24 07:00:00 2.3 3 Norte 15 Norte 0 -- -- 92
2021-01-24 06:00:00 3.5 7 Norte 15 Norte 0.2 -- -- 91
2021-01-24 05:00:00 4.1 3 Nordeste 8 Norte 0 -- -- 92
2021-01-24 04:00:00 4.8 6 Norte 17 Norte 0.2 -- -- 91
2021-01-24 03:00:00 5.6 10 Norte 30 Oeste 0.2 -- -- 87
2021-01-24 02:00:00 5.9 17 Oeste 33 Oeste 0 -- -- 83
2021-01-24 01:00:00 6.2 19 Oeste 32 Oeste 0 -- -- 80
2021-01-24 00:00:00 6.7 17 Oeste 35 Oeste 0 -- -- 78
2021-01-23 23:00:00 7.1 13 Oeste 32 Oeste 0 -- -- 78
2021-01-23 22:00:00 7.8 17 Oeste 34 Oeste 0 -- -- 77
2021-01-23 21:00:00 8.3 14 Noroeste 23 Noroeste 0 -- -- 92
2021-01-23 20:00:00 8.3 17 Noroeste 35 Noroeste 0.2 -- -- 92
2021-01-23 19:00:00 8.3 18 Oeste 53 Oeste 0.2 -- -- 90
2021-01-23 18:00:00 8.1 17 Sudoeste 42 Oeste 0 -- -- 87
2021-01-23 17:00:00 8 17 Sudoeste 51 Oeste 0 -- -- 86
2021-01-23 16:00:00 7.7 19 Sudoeste 40 Oeste 0.2 -- -- 88
2021-01-23 15:00:00 7 24 Sudoeste 44 Sudoeste 1.2 -- -- 87
2021-01-23 14:00:00 5.8 17 Oeste 63 Sudoeste 1 -- -- 90
2021-01-23 13:00:00 6.1 25 Sudoeste 44 Sudoeste 0.2 -- -- 85
2021-01-23 12:00:00 5.6 22 Sudoeste 42 Sudoeste 0.2 -- -- 85
2021-01-23 11:00:00 5.6 21 Sudoeste 41 Oeste 0 -- -- 81
2021-01-23 10:00:00 5 21 Sudoeste 38 Sudoeste 0 -- -- 83
2021-01-23 09:00:00 4.6 23 Sudoeste 46 Sudoeste 0 -- -- 84
2021-01-23 08:00:00 4.5 22 Sudoeste 54 Sudoeste 0 -- -- 83
2021-01-23 07:00:00 4.3 19 Sudoeste 45 Oeste 0 -- -- 82
2021-01-23 06:00:00 4.4 25 Sudoeste 52 Sudoeste 0 -- -- 83
2021-01-23 05:00:00 4.5 26 Sudoeste 45 Sudoeste 0 -- -- 79
2021-01-23 04:00:00 4.2 24 Sudoeste 42 Sudoeste 0 -- -- 84
2021-01-23 03:00:00 3.8 26 Sudoeste 47 Sudoeste 0 -- -- 87
2021-01-23 02:00:00 3.5 24 Sudoeste 41 Sudoeste 0 -- -- 86
2021-01-23 01:00:00 3.5 17 Sudoeste 42 Sudoeste 0 -- -- 86
2021-01-23 00:00:00 4.1 14 Sudoeste 37 Oeste 0 -- -- 79
2021-01-22 23:00:00 3.9 15 Oeste 42 Oeste 0 -- -- 79
2021-01-22 22:00:00 4.2 19 Oeste 30 Oeste 0 -- -- 75
2021-01-22 21:00:00 4.2 15 Oeste 33 Oeste 0 -- -- 74
2021-01-22 20:00:00 4.8 18 Oeste 30 Oeste 0 -- -- 73
2021-01-22 19:00:00 3.3 3 Oeste 13 Noroeste 0 -- -- 73
2021-01-22 18:00:00 6 12 Oeste 27 Oeste 0 -- -- 60
2021-01-22 17:00:00 8.2 23 Oeste 46 Oeste 0 -- -- 52
2021-01-22 16:00:00 9 28 Oeste 45 Sudoeste 0.2 -- -- 52
2021-01-22 15:00:00 7.7 7 Oeste 17 Noroeste 0 -- -- 64
2021-01-22 14:00:00 8 4 Oeste 13 Sur 0 -- -- 66
2021-01-22 13:00:00 6.8 6 Sudeste 18 Norte 0 -- -- 80
2021-01-22 12:00:00 4.5 12 Norte 19 Norte 0.2 -- -- 86
2021-01-22 11:00:00 4.7 5 Noroeste 20 Oeste 0.2 -- -- 85
2021-01-22 10:00:00 4.4 10 Oeste 32 Oeste 0 -- -- 85
2021-01-22 09:00:00 4.2 24 Oeste 46 Oeste 0 -- -- 90
2021-01-22 08:00:00 4.4 22 Oeste 46 Oeste 0 -- -- 89
2021-01-22 07:00:00 4.4 27 Oeste 59 Sudoeste 0 -- -- 88
2021-01-22 06:00:00 4.7 33 Oeste 69 Sudoeste 0.2 -- -- 92
2021-01-22 05:00:00 5.2 31 Sudoeste 73 Sudoeste 1.6 -- -- 94
2021-01-22 04:00:00 5.2 41 Oeste 85 Oeste 5.6 -- -- 91
2021-01-22 03:00:00 8.6 30 Sudoeste 68 Sudoeste 1.6 -- -- 85
2021-01-22 02:00:00 8.5 28 Sudoeste 68 Sudoeste 0.8 -- -- 86
2021-01-22 01:00:00 8.5 34 Sudoeste 69 Sudoeste 0 -- -- 84
2021-01-22 00:00:00 8.5 24 Sudoeste 56 Sudoeste 0 -- -- 81
2021-01-21 23:00:00 8.4 32 Sudoeste 57 Sudoeste 0 -- -- 81
2021-01-21 22:00:00 8.5 32 Sudoeste 72 Sudoeste 0.2 -- -- 78
2021-01-21 21:00:00 9 35 Sudoeste 57 Oeste 0 -- -- 77
2021-01-21 20:00:00 9.4 29 Sudoeste 57 Sudoeste 0 -- -- 81
2021-01-21 19:00:00 9.6 31 Sudoeste 55 Sudoeste 0.2 -- -- 83
2021-01-21 18:00:00 9.6 28 Sudoeste 62 Sudoeste 0 -- -- 83
2021-01-21 17:00:00 10.3 26 Sudoeste 53 Sudoeste 0 -- -- 80
2021-01-21 16:00:00 9.7 27 Sudoeste 56 Sudoeste 0.6 -- -- 85
2021-01-21 15:00:00 9.2 28 Sudoeste 62 Sudoeste 0.2 -- -- 87
2021-01-21 14:00:00 9.3 30 Sudoeste 60 Sudoeste 0.2 -- -- 85
2021-01-21 13:00:00 9 29 Sudoeste 76 Sudoeste 0.2 -- -- 85
2021-01-21 12:00:00 9.5 36 Sudoeste 69 Sudoeste 0.2 -- -- 79
2021-01-21 11:00:00 8.3 27 Sudoeste 50 Sudoeste 0 -- -- 82
2021-01-21 10:00:00 7.7 26 Sudoeste 44 Sudoeste 0 -- -- 83
2021-01-21 09:00:00 7.2 18 Sudoeste 45 Sudoeste 0 -- -- 85
2021-01-21 08:00:00 7.4 27 Sudoeste 54 Sudoeste 0 -- -- 84
2021-01-21 07:00:00 7.5 17 Sudoeste 46 Sudoeste 0 -- -- 85
2021-01-21 06:00:00 7.5 19 Sudoeste 44 Sudoeste 0 -- -- 85
2021-01-21 05:00:00 7.7 16 Sudoeste 33 Sudoeste 0 -- -- 85
2021-01-21 04:00:00 7.9 15 Sudoeste 35 Sudoeste 0 -- -- 85
2021-01-21 03:00:00 8 17 Sudoeste 35 Sudoeste 0 -- -- 86
2021-01-21 02:00:00 7.9 19 Sudoeste 37 Oeste 0 -- -- 87
2021-01-21 01:00:00 7.9 15 Sudoeste 41 Oeste 0 -- -- 86
2021-01-21 00:00:00 8.1 23 Sudoeste 41 Oeste 0 -- -- 84
2021-01-20 23:00:00 8.2 21 Sudoeste 46 Sudoeste 0 -- -- 84
2021-01-20 22:00:00 8.1 18 Sudoeste 49 Sur 0 -- -- 84
2021-01-20 21:00:00 8.1 17 Sudoeste 41 Sudoeste 0 -- -- 83
2021-01-20 20:00:00 8.6 19 Sudoeste 48 Sudoeste 0 -- -- 82
2021-01-20 19:00:00 8.5 27 Sudoeste 58 Sudoeste 0.2 -- -- 83
2021-01-20 18:00:00 8.5 26 Sudoeste 54 Sudoeste 0 -- -- 85
2021-01-20 17:00:00 8.8 28 Sudoeste 61 Sudoeste 0.2 -- -- 81
2021-01-20 16:00:00 8.4 22 Sudoeste 62 Sudoeste 0 -- -- 83
2021-01-20 15:00:00 8.9 33 Sur 63 Sur 0 -- -- 77
2021-01-20 14:00:00 8.3 28 Sudoeste 82 Sudoeste 0 -- -- 75
2021-01-20 13:00:00 7 30 Sudoeste 56 Sur 0 -- -- 78
2021-01-20 12:00:00 6.4 27 Sudoeste 58 Sudoeste 0 -- -- 81
2021-01-20 11:00:00 5.3 22 Sur 57 Sudoeste 0.4 -- -- 84
2021-01-20 10:00:00 4.3 24 Sur 53 Sudoeste 0.2 -- -- 84
2021-01-20 09:00:00 3.6 20 Sudoeste 42 Sur 0.2 -- -- 85
2021-01-20 08:00:00 3.2 20 Sur 44 Sur 0.8 -- -- 86
2021-01-20 07:00:00 3.7 16 Sur 39 Sur 0 -- -- 82
2021-01-20 06:00:00 4.5 15 Sur 37 Sur 0 -- -- 78
2021-01-20 05:00:00 4.5 13 Sur 34 Sur 0 -- -- 79
2021-01-20 04:00:00 3.7 11 Sur 35 Sur 0 -- -- 81
2021-01-20 03:00:00 4.6 18 Sudoeste 35 Sudoeste 0 -- -- 81
2021-01-20 02:00:00 4.8 21 Sudoeste 50 Sudoeste 0 -- -- 78
2021-01-20 01:00:00 4.5 22 Sudoeste 44 Oeste 0 -- -- 80
2021-01-20 00:00:00 3.5 6 Este 19 Noroeste 0 -- -- 79
2021-01-19 23:00:00 3.8 5 Noroeste 27 Oeste 0 -- -- 76
2021-01-19 22:00:00 3.9 11 Oeste 22 Noroeste 0 -- -- 77
2021-01-19 21:00:00 4.9 8 Noroeste 32 Sur 0 -- -- 71
2021-01-19 20:00:00 5.2 10 Sur 25 Sudoeste 0 -- -- 69
2021-01-19 19:00:00 5.4 9 Sudoeste 24 Sudoeste 0 -- -- 67
2021-01-19 18:00:00 6.1 9 Oeste 22 Sudoeste 0 -- -- 63
2021-01-19 17:00:00 7.2 17 Oeste 33 Sudoeste 0 -- -- 59
2021-01-19 16:00:00 8.3 15 Sudoeste 32 Sudoeste 0 -- -- 56
2021-01-19 15:00:00 9.9 14 Oeste 27 Oeste 0 -- -- 53
2021-01-19 14:00:00 8.4 14 Noroeste 31 Oeste 0 -- -- 63
2021-01-19 13:00:00 7.4 18 Oeste 27 Oeste 0 -- -- 66
2021-01-19 12:00:00 6.9 6 Sudoeste 17 Sudoeste 0 -- -- 76
2021-01-19 11:00:00 3.9 4 Sudoeste 9 Sudoeste 0 -- -- 99
2021-01-19 10:00:00 0.8 4 Oeste 10 Oeste 0 -- -- 100
2021-01-19 09:00:00 -3.9 3 Oeste 6 Oeste 0 -- -- 98
2021-01-19 08:00:00 -3.6 3 Este 9 Oeste 0 -- -- 98
2021-01-19 07:00:00 -2.9 2 Oeste 8 Oeste 0 -- -- 98
2021-01-19 06:00:00 -2.8 2 Este 8 Noroeste 0 -- -- 97
2021-01-19 05:00:00 -2.1 5 Oeste 8 Oeste 0 -- -- 97
2021-01-19 04:00:00 -0.8 0 Calma 6 Este 0 -- -- 97
2021-01-19 03:00:00 -1 2 Nordeste 8 Noroeste 0 -- -- 96
2021-01-19 02:00:00 0.2 5 Noroeste 8 Noroeste 0 -- -- 94
2021-01-19 01:00:00 1.8 3 Noroeste 11 Oeste 0 -- -- 95
2021-01-19 00:00:00 2.4 5 Oeste 20 Oeste 0 -- -- 95
2021-01-18 23:00:00 2.8 7 Oeste 18 Oeste 0 -- -- 96
2021-01-18 22:00:00 2.6 5 Oeste 18 Oeste 0 -- -- 96
2021-01-18 21:00:00 2.3 7 Oeste 15 Oeste 0 -- -- 95
2021-01-18 20:00:00 1.7 7 Oeste 16 Oeste 0 -- -- 92
2021-01-18 19:00:00 3 5 Oeste 12 Oeste 0 -- -- 88
2021-01-18 18:00:00 6.6 7 Sudoeste 16 Sudoeste 0 -- -- 76
2021-01-18 17:00:00 10.7 10 Sudoeste 14 Sudoeste 0 -- -- 64
2021-01-18 16:00:00 11.8 5 Sudoeste 10 Sur 0 -- -- 61
2021-01-18 15:00:00 10.7 6 Sudoeste 11 Sudoeste 0 -- -- 65
2021-01-18 14:00:00 8.3 3 Sudoeste 8 Sudoeste 0 -- -- 73
2021-01-18 13:00:00 5.4 5 Sudoeste 9 Sudoeste 0 -- -- 86
2021-01-18 12:00:00 2.2 4 Noroeste 8 Oeste 0 -- -- 97
2021-01-18 11:00:00 0.2 5 Oeste 10 Oeste 0 -- -- 99
2021-01-18 10:00:00 -1 8 Noroeste 11 Noroeste 0 -- -- 98
2021-01-18 09:00:00 -0.5 5 Noroeste 8 Noroeste 0 -- -- 98
2021-01-18 08:00:00 -0.3 5 Noroeste 9 Oeste 0 -- -- 98
2021-01-18 07:00:00 0 6 Noroeste 12 Norte 0 -- -- 98
2021-01-18 06:00:00 0.1 5 Oeste 10 Oeste 0 -- -- 97
2021-01-18 05:00:00 -0.3 5 Oeste 9 Oeste 0 -- -- 97
2021-01-18 04:00:00 -0.9 7 Noroeste 12 Noroeste 0 -- -- 97
2021-01-18 03:00:00 -1.7 6 Noroeste 9 Noroeste 0 -- -- 95
2021-01-18 02:00:00 -1.3 6 Oeste 10 Noroeste 0 -- -- 95
2021-01-18 01:00:00 -0.4 6 Oeste 12 Sudoeste 0 -- -- 93
2021-01-18 00:00:00 0.5 6 Oeste 10 Oeste 0 -- -- 91
2021-01-17 23:00:00 1.6 4 Sudoeste 8 Oeste 0 -- -- 89
2021-01-17 22:00:00 2 5 Oeste 10 Oeste 0 -- -- 90
2021-01-17 21:00:00 3.1 0 Calma 8 Oeste 0 -- -- 87
2021-01-17 20:00:00 3.6 3 Oeste 7 Nordeste 0 -- -- 86
2021-01-17 19:00:00 4.5 6 Este 10 Nordeste 0 -- -- 83
2021-01-17 18:00:00 5.7 7 Este 10 Este 0 -- -- 77
2021-01-17 17:00:00 7.4 8 Sudeste 10 Este 0 -- -- 72
2021-01-17 16:00:00 8.4 0 Calma 5 Oeste 0 -- -- 65
2021-01-17 15:00:00 8.8 3 Sudoeste 6 Sudoeste 0 -- -- 63
2021-01-17 14:00:00 6.4 3 Sur 6 Sudoeste 0 -- -- 71
2021-01-17 13:00:00 3.4 3 Sudoeste 8 Sur 0 -- -- 79
2021-01-17 12:00:00 0.9 4 Sudoeste 8 Sudoeste 0 -- -- 86
2021-01-17 11:00:00 -2.7 0 Calma 5 Oeste 0 -- -- 92
2021-01-17 10:00:00 -4.2 3 Sudoeste 7 Norte 0 -- -- 96
2021-01-17 09:00:00 -6.1 0 Calma 4 Sudoeste 0 -- -- 96
2021-01-17 08:00:00 -5.5 2 Este 7 Este 0 -- -- 96
2021-01-17 07:00:00 -5.6 2 Este 5 Oeste 0 -- -- 96
2021-01-17 06:00:00 -5.1 5 Oeste 6 Oeste 0 -- -- 96
2021-01-17 05:00:00 -4.5 3 Nordeste 8 Oeste 0 -- -- 96
2021-01-17 04:00:00 -4.2 5 Oeste 8 Sudoeste 0 -- -- 96
2021-01-17 03:00:00 -3.8 5 Oeste 12 Oeste 0 -- -- 96
2021-01-17 02:00:00 -3.8 6 Oeste 10 Oeste 0 -- -- 96
2021-01-17 01:00:00 -3.2 8 Noroeste 13 Oeste 0 -- -- 96
2021-01-17 00:00:00 -3 4 Oeste 12 Oeste 0 -- -- 95
2021-01-16 23:00:00 -2.6 6 Oeste 12 Oeste 0 -- -- 95
2021-01-16 22:00:00 -2.3 9 Oeste 14 Sudoeste 0 -- -- 93
2021-01-16 21:00:00 -1.5 8 Oeste 13 Sudoeste 0 -- -- 90
2021-01-16 20:00:00 -0.7 8 Oeste 14 Sudoeste 0 -- -- 88
2021-01-16 19:00:00 1 6 Oeste 12 Oeste 0 -- -- 82
2021-01-16 18:00:00 4.4 6 Sudoeste 14 Sudoeste 0 -- -- 69
2021-01-16 17:00:00 9.2 10 Sudoeste 14 Sudoeste 0 -- -- 54
2021-01-16 16:00:00 10.8 3 Sudeste 10 Este 0 -- -- 49
2021-01-16 15:00:00 9.1 6 Este 9 Sudeste 0 -- -- 59
2021-01-16 14:00:00 7.1 6 Sudeste 9 Sudeste 0 -- -- 67
2021-01-16 13:00:00 4.6 4 Sudeste 6 Sudeste 0 -- -- 74
2021-01-16 12:00:00 1.7 2 Sur 5 Este 0 -- -- 91
2021-01-16 11:00:00 -2.3 0 Calma 5 Sudoeste 0 -- -- 99
2021-01-16 10:00:00 -4.1 0 Calma 9 Noroeste 0 -- -- 98
2021-01-16 09:00:00 -4.1 5 Noroeste 11 Noroeste 0 -- -- 97
2021-01-16 08:00:00 -3.7 6 Noroeste 9 Noroeste 0 -- -- 98
2021-01-16 07:00:00 -3 5 Noroeste 9 Noroeste 0 -- -- 98
2021-01-16 06:00:00 -2.4 5 Noroeste 10 Sudoeste 0 -- -- 98
2021-01-16 05:00:00 -1.8 5 Oeste 10 Noroeste 0 -- -- 98
2021-01-16 04:00:00 -1.4 8 Sudoeste 13 Sudoeste 0 -- -- 98
2021-01-16 03:00:00 -1.2 4 Sudoeste 10 Sudoeste 0 -- -- 98
2021-01-16 02:00:00 -1.4 7 Sudoeste 10 Sudoeste 0 -- -- 97
2021-01-16 01:00:00 -2.1 5 Oeste 8 Oeste 0 -- -- 97
2021-01-16 00:00:00 -3.7 4 Oeste 8 Oeste 0 -- -- 96
2021-01-15 23:00:00 -3.6 6 Oeste 8 Sudoeste 0 -- -- 95
2021-01-15 22:00:00 -2.7 2 Oeste 9 Oeste 0 -- -- 94
2021-01-15 21:00:00 -1.4 0 Calma 10 Noroeste 0 -- -- 93
2021-01-15 20:00:00 0.1 3 Noroeste 6 Oeste 0 -- -- 90
2021-01-15 19:00:00 2.2 4 Noroeste 9 Nordeste 0 -- -- 84
2021-01-15 18:00:00 5 3 Nordeste 14 Norte 0 -- -- 76
2021-01-15 17:00:00 7 7 Nordeste 14 Este 0 -- -- 67
2021-01-15 16:00:00 7.9 6 Noroeste 15 Noroeste 0 -- -- 61
2021-01-15 15:00:00 7.5 6 Noroeste 18 Sudoeste 0 -- -- 64
2021-01-15 14:00:00 7.6 5 Sudeste 27 Noroeste 0 -- -- 65
2021-01-15 13:00:00 5.9 5 Este 10 Este 0 -- -- 74
2021-01-15 12:00:00 2.3 3 Sudoeste 8 Oeste 0 -- -- 86
2021-01-15 11:00:00 -0.4 3 Oeste 14 Sudoeste 0 -- -- 93
2021-01-15 10:00:00 -2.8 10 Oeste 15 Sudoeste 0 -- -- 96
2021-01-15 09:00:00 -3.1 5 Oeste 9 Oeste 0 -- -- 96
2021-01-15 08:00:00 -2.9 4 Oeste 10 Oeste 0 -- -- 95
2021-01-15 07:00:00 -2.3 7 Oeste 12 Noroeste 0 -- -- 93
2021-01-15 06:00:00 -1 6 Oeste 10 Sudoeste 0 -- -- 93
2021-01-15 05:00:00 -0.7 5 Oeste 11 Oeste 0 -- -- 93
2021-01-15 04:00:00 -0.6 5 Oeste 13 Sudoeste 0 -- -- 94
2021-01-15 03:00:00 -0.1 3 Noroeste 13 Oeste 0 -- -- 94
2021-01-15 02:00:00 -0.1 5 Oeste 10 Sudoeste 0 -- -- 94
2021-01-15 01:00:00 0.3 5 Oeste 9 Sudoeste 0 -- -- 94
2021-01-15 00:00:00 0.9 3 Oeste 9 Sudoeste 0 -- -- 95
2021-01-14 23:00:00 0.9 6 Oeste 12 Noroeste 0 -- -- 97
2021-01-14 22:00:00 0.3 5 Este 11 Oeste 0 -- -- 96
2021-01-14 21:00:00 0.4 3 Sur 7 Este 0 -- -- 95
2021-01-14 20:00:00 0.9 7 Este 9 Este 0 -- -- 94
2021-01-14 19:00:00 1.1 3 Sudeste 13 Este 0 -- -- 91
2021-01-14 18:00:00 1.6 8 Este 16 Este 0 -- -- 88
2021-01-14 17:00:00 2.4 12 Sudeste 16 Este 0 -- -- 84
2021-01-14 16:00:00 2 8 Este 14 Este 0 -- -- 83
2021-01-14 15:00:00 2.5 9 Este 14 Este 0 -- -- 80
2021-01-14 14:00:00 0.2 5 Sudeste 8 Este 0 -- -- 94
2021-01-14 13:00:00 -2.1 3 Sudoeste 6 Sudoeste 0 -- -- 97
2021-01-14 12:00:00 -4.4 3 Sudoeste 5 Oeste 0 -- -- 97
2021-01-14 11:00:00 -6.5 2 Oeste 6 Oeste 0 -- -- 95
2021-01-14 10:00:00 -8.5 3 Oeste 8 Oeste 0 -- -- 93
2021-01-14 09:00:00 -9.1 4 Oeste 7 Noroeste 0 -- -- 93
2021-01-14 08:00:00 -9.1 5 Oeste 7 Oeste 0 -- -- 93
2021-01-14 07:00:00 -8.8 3 Oeste 5 Oeste 0 -- -- 93
2021-01-14 06:00:00 -8.1 3 Noroeste 6 Noroeste 0 -- -- 94
2021-01-14 05:00:00 -7.3 3 Oeste 5 Noroeste 0 -- -- 95
2021-01-14 04:00:00 -7.6 2 Oeste 4 Noroeste 0 -- -- 95
2021-01-14 03:00:00 -7.4 0 Calma 5 Oeste 0 -- -- 95
2021-01-14 02:00:00 -7.5 4 Noroeste 5 Oeste 0 -- -- 94
2021-01-14 01:00:00 -6.9 0 Calma 5 Oeste 0 -- -- 94
2021-01-14 00:00:00 -6.3 3 Oeste 8 Noroeste 0 -- -- 94
2021-01-13 23:00:00 -5.4 4 Oeste 6 Noroeste 0 -- -- 95
2021-01-13 22:00:00 -4.3 4 Noroeste 8 Oeste 0 -- -- 94
2021-01-13 21:00:00 -3.5 3 Oeste 8 Noroeste 0 -- -- 93
2021-01-13 20:00:00 -2.3 6 Oeste 10 Oeste 0 -- -- 92
2021-01-13 19:00:00 -1.2 8 Noroeste 14 Oeste 0 -- -- 90
2021-01-13 18:00:00 1.7 6 Oeste 11 Oeste 0 -- -- 80
2021-01-13 17:00:00 5.4 5 Oeste 11 Sudoeste 0 -- -- 68
2021-01-13 16:00:00 6.9 8 Sudoeste 10 Sudoeste 0 -- -- 64
2021-01-13 15:00:00 6.7 6 Sudoeste 11 Sudoeste 0 -- -- 65
2021-01-13 14:00:00 5.9 6 Sudoeste 11 Sudoeste 0 -- -- 67
2021-01-13 13:00:00 3.9 2 Oeste 6 Sudoeste 0 -- -- 76
2021-01-13 12:00:00 1.8 5 Sudoeste 10 Oeste 0 -- -- 82
2021-01-13 11:00:00 -0.8 7 Oeste 13 Oeste 0 -- -- 92
2021-01-13 10:00:00 -2.2 3 Nordeste 15 Noroeste 0 -- -- 95
2021-01-13 09:00:00 -3.2 4 Noroeste 12 Oeste 0 -- -- 95
2021-01-13 08:00:00 -3.7 6 Oeste 11 Oeste 0 -- -- 96
2021-01-13 07:00:00 -4.6 6 Noroeste 12 Oeste 0 -- -- 95
2021-01-13 06:00:00 -5.6 8 Oeste 11 Oeste 0 -- -- 95
2021-01-13 05:00:00 -5.8 2 Oeste 10 Noroeste 0 -- -- 95
2021-01-13 04:00:00 -5.1 9 Oeste 14 Oeste 0 -- -- 95
2021-01-13 03:00:00 -4.7 7 Oeste 13 Oeste 0 -- -- 96
2021-01-13 02:00:00 -5.7 6 Oeste 12 Oeste 0 -- -- 96
2021-01-13 01:00:00 -6.4 7 Oeste 9 Oeste 0 -- -- 95
2021-01-13 00:00:00 -6.3 4 Oeste 6 Oeste 0 -- -- 95
2021-01-12 23:00:00 -5.9 3 Oeste 6 Oeste 0 -- -- 94
2021-01-12 22:00:00 -5.3 0 Calma 6 Oeste 0 -- -- 93
2021-01-12 21:00:00 -4.2 3 Oeste 6 Noroeste 0 -- -- 92
2021-01-12 20:00:00 -3 3 Oeste 7 Oeste 0 -- -- 90
2021-01-12 19:00:00 -1.4 3 Noroeste 12 Noroeste 0 -- -- 87
2021-01-12 18:00:00 1.3 5 Noroeste 9 Noroeste 0 -- -- 76
2021-01-12 17:00:00 6.8 2 Sur 6 Sur 0 -- -- 58
2021-01-12 16:00:00 7 2 Sudeste 6 Sudeste 0 -- -- 59
2021-01-12 15:00:00 5.6 4 Oeste 9 Oeste 0 -- -- 61
2021-01-12 14:00:00 4.8 5 Sudoeste 12 Sudoeste 0 -- -- 66
2021-01-12 13:00:00 3.3 9 Sudoeste 12 Sudoeste 0 -- -- 74
2021-01-12 12:00:00 1 4 Oeste 7 Sudoeste 0 -- -- 80
2021-01-12 11:00:00 -2.5 4 Sudoeste 8 Sudoeste 0 -- -- 92
2021-01-12 10:00:00 -4.3 4 Oeste 6 Oeste 0 -- -- 94
2021-01-12 09:00:00 -5.4 0 Calma 8 Sudoeste 0 -- -- 94
2021-01-12 08:00:00 -5.7 4 Oeste 10 Sudoeste 0 -- -- 94
2021-01-12 07:00:00 -5.7 4 Oeste 12 Oeste 0 -- -- 95
2021-01-12 06:00:00 -6.3 9 Oeste 14 Oeste 0 -- -- 95
2021-01-12 05:00:00 -7.3 5 Noroeste 13 Oeste 0 -- -- 95
2021-01-12 04:00:00 -7.3 4 Oeste 11 Oeste 0 -- -- 95
2021-01-12 03:00:00 -7.2 6 Oeste 10 Oeste 0 -- -- 95
2021-01-12 02:00:00 -6.8 5 Oeste 10 Sudoeste 0 -- -- 94
2021-01-12 01:00:00 -5.2 3 Este 7 Noroeste 0 -- -- 93
2021-01-12 00:00:00 -4.1 3 Oeste 9 Sur 0 -- -- 92
2021-01-11 23:00:00 -3 3 Oeste 7 Noroeste 0 -- -- 92
2021-01-11 22:00:00 -2.2 4 Sudeste 8 Sudoeste 0 -- -- 90
2021-01-11 21:00:00 -1.5 2 Este 6 Nordeste 0 -- -- 86
2021-01-11 20:00:00 -0.2 3 Nordeste 7 Nordeste 0 -- -- 82
2021-01-11 19:00:00 0.9 5 Este 14 Nordeste 0 -- -- 82
2021-01-11 18:00:00 1.3 3 Nordeste 14 Norte 0 -- -- 79
2021-01-11 17:00:00 1.9 7 Nordeste 22 Nordeste 0 -- -- 75
2021-01-11 16:00:00 1.9 6 Nordeste 26 Norte 0 -- -- 76
2021-01-11 15:00:00 2.1 6 Nordeste 27 Nordeste 0 -- -- 72
2021-01-11 14:00:00 2 9 Nordeste 31 Nordeste 0 -- -- 76
2021-01-11 13:00:00 2 16 Nordeste 27 Este 0 -- -- 71
2021-01-11 12:00:00 1.7 13 Nordeste 31 Norte 0 -- -- 73
2021-01-11 11:00:00 1.3 11 Nordeste 28 Nordeste 0 -- -- 77
2021-01-11 10:00:00 0.8 6 Nordeste 23 Norte 0 -- -- 78
2021-01-11 09:00:00 0.4 10 Nordeste 27 Nordeste 0 -- -- 79
2021-01-11 08:00:00 0.2 15 Nordeste 36 Nordeste 0 -- -- 79
2021-01-11 07:00:00 0.1 9 Nordeste 29 Este 0 -- -- 81
2021-01-11 06:00:00 0 9 Nordeste 29 Nordeste 0 -- -- 80
2021-01-11 05:00:00 0.4 9 Nordeste 32 Nordeste 0 -- -- 78
2021-01-11 04:00:00 0.6 9 Nordeste 30 Nordeste 0 -- -- 80
2021-01-11 03:00:00 0.7 14 Norte 27 Norte 0 -- -- 81
2021-01-11 02:00:00 0.7 8 Norte 27 Norte 0 -- -- 83
2021-01-11 01:00:00 0.9 10 Nordeste 27 Norte 0 -- -- 80
2021-01-11 00:00:00 0.8 10 Noroeste 23 Noroeste 0 -- -- 81
2021-01-10 23:00:00 0.7 7 Nordeste 30 Nordeste 0 -- -- 79
2021-01-10 22:00:00 0.7 11 Norte 29 Nordeste 0 -- -- 80
2021-01-10 21:00:00 0.6 11 Norte 29 Nordeste 0 -- -- 79
2021-01-10 20:00:00 0.5 11 Norte 33 Norte 0 -- -- 81
2021-01-10 19:00:00 0.4 10 Norte 31 Noroeste 0 -- -- 79
2021-01-10 18:00:00 0.2 12 Norte 33 Nordeste 0 -- -- 79
2021-01-10 17:00:00 0.4 12 Norte 32 Noroeste 0 -- -- 79
2021-01-10 16:00:00 0.9 10 Noroeste 30 Noroeste 0 -- -- 79
2021-01-10 15:00:00 1.2 12 Noroeste 40 Noroeste 0 -- -- 78
2021-01-10 14:00:00 0.8 14 Norte 43 Noroeste 0 -- -- 81
2021-01-10 13:00:00 0.8 12 Norte 33 Noroeste 0 -- -- 80
2021-01-10 12:00:00 1 11 Norte 37 Noroeste 0 -- -- 85
2021-01-10 11:00:00 0.6 11 Norte 38 Noroeste 0 -- -- 85
2021-01-10 10:00:00 0.3 10 Norte 31 Noroeste 0 -- -- 86
2021-01-10 09:00:00 0.1 6 Norte 23 Nordeste 0 -- -- 86
2021-01-10 08:00:00 0.2 8 Norte 23 Nordeste 0 -- -- 85
2021-01-10 07:00:00 0.2 6 Norte 25 Norte 0 -- -- 86
2021-01-10 06:00:00 0.2 11 Norte 33 Nordeste 0 -- -- 87
2021-01-10 05:00:00 0.2 6 Nordeste 27 Norte 0 -- -- 88
2021-01-10 04:00:00 0.2 12 Nordeste 33 Nordeste 0 -- -- 87
2021-01-10 03:00:00 -0.1 9 Nordeste 33 Nordeste 0 -- -- 90
2021-01-10 02:00:00 -0.2 10 Norte 27 Norte 0 -- -- 89
2021-01-10 01:00:00 -0.5 4 Sudoeste 20 Nordeste 0 -- -- 89
2021-01-10 00:00:00 -0.6 7 Nordeste 17 Noroeste 0 -- -- 89
2021-01-09 23:00:00 -1.1 8 Norte 18 Norte 0.2 -- -- 89
2021-01-09 22:00:00 -1.2 4 Norte 15 Nordeste 0 -- -- 88
2021-01-09 21:00:00 -1.3 5 Nordeste 14 Este 0.2 -- -- 89
2021-01-09 20:00:00 -1.2 9 Norte 29 Norte 0 -- -- 87
2021-01-09 19:00:00 -1.2 6 Norte 25 Nordeste 0 -- -- 87
2021-01-09 18:00:00 -0.9 11 Nordeste 28 Norte 0.2 -- -- 86
2021-01-09 17:00:00 -0.8 5 Sudoeste 24 Noroeste 0.4 -- -- 90
2021-01-09 16:00:00 -0.7 8 Norte 31 Oeste 0.2 -- -- 88
2021-01-09 15:00:00 -0.4 10 Norte 28 Nordeste 0.4 -- -- 88
2021-01-09 14:00:00 -0.4 10 Norte 28 Norte 0 -- -- 86
2021-01-09 13:00:00 -0.5 14 Norte 34 Norte 0 -- -- 84
2021-01-09 12:00:00 -0.3 13 Nordeste 37 Noroeste 0 -- -- 83
2021-01-09 11:00:00 -0.6 10 Nordeste 29 Norte 0 -- -- 83
2021-01-09 10:00:00 -0.9 11 Nordeste 25 Este 0 -- -- 82
2021-01-09 09:00:00 -1.3 12 Nordeste 30 Nordeste 0 -- -- 82
2021-01-09 08:00:00 -1.3 10 Nordeste 25 Nordeste 0 -- -- 82
2021-01-09 07:00:00 -1.5 9 Nordeste 21 Nordeste 0 -- -- 83
2021-01-09 06:00:00 -1.8 6 Nordeste 23 Nordeste 0 -- -- 82
2021-01-09 05:00:00 -1.7 10 Este 19 Nordeste 0 -- -- 84
2021-01-09 04:00:00 -1.7 10 Este 18 Este 0 -- -- 83
2021-01-09 03:00:00 -1.9 6 Este 12 Este 0 -- -- 83
2021-01-09 02:00:00 -2.3 4 Este 10 Nordeste 0 -- -- 84
2021-01-09 01:00:00 -2.4 6 Nordeste 12 Este 0 -- -- 85
2021-01-09 00:00:00 -2.9 8 Este 13 Este 0 -- -- 87
2021-01-08 23:00:00 -2.7 8 Este 15 Nordeste 0 -- -- 84
2021-01-08 22:00:00 -2.8 5 Este 17 Nordeste 0 -- -- 85
2021-01-08 21:00:00 -2.3 7 Nordeste 17 Norte 0 -- -- 83
2021-01-08 20:00:00 -2.3 6 Nordeste 19 Nordeste 0 -- -- 84
2021-01-08 19:00:00 -1.9 4 Norte 19 Norte 0 -- -- 82
2021-01-08 18:00:00 -1.1 8 Norte 21 Norte 0 -- -- 79
2021-01-08 17:00:00 0.2 7 Norte 27 Nordeste 0 -- -- 73
2021-01-08 16:00:00 1 9 Norte 23 Norte 0 -- -- 68
2021-01-08 15:00:00 0.6 11 Norte 23 Nordeste 0 -- -- 66
2021-01-08 14:00:00 1 9 Norte 23 Nordeste 0 -- -- 67
2021-01-08 13:00:00 0.4 10 Nordeste 25 Nordeste 0 -- -- 70
2021-01-08 12:00:00 0.1 10 Nordeste 20 Norte 0 -- -- 73
2021-01-08 11:00:00 -3.6 2 Sudoeste 6 Norte 0 -- -- 87
2021-01-08 10:00:00 -7 8 Noroeste 11 Noroeste 0 -- -- 90
2021-01-08 09:00:00 -6.9 8 Noroeste 14 Noroeste 0 -- -- 88
2021-01-08 08:00:00 -4.9 9 Norte 13 Norte 0 -- -- 85
2021-01-08 07:00:00 -4 5 Norte 12 Nordeste 0 -- -- 84
2021-01-08 06:00:00 -3.7 6 Norte 10 Nordeste 0 -- -- 82
2021-01-08 05:00:00 -2.6 2 Norte 11 Nordeste 0 -- -- 79
2021-01-08 04:00:00 -2.1 6 Este 19 Nordeste 0 -- -- 83
2021-01-08 03:00:00 -2.2 5 Nordeste 17 Nordeste 0 -- -- 87
2021-01-08 02:00:00 -4.4 6 Nordeste 10 Este 0 -- -- 97
2021-01-08 01:00:00 -5.9 4 Este 6 Este 0 -- -- 96
2021-01-08 00:00:00 -6.8 2 Oeste 6 Oeste 0 -- -- 95
2021-01-07 23:00:00 -7.5 3 Este 6 Sudeste 0 -- -- 94
2021-01-07 22:00:00 -7 0 Calma 3 Oeste 0 -- -- 94
2021-01-07 21:00:00 -7 0 Calma 7 Oeste 0 -- -- 94
2021-01-07 20:00:00 -6.4 4 Oeste 5 Oeste 0 -- -- 92
2021-01-07 19:00:00 -4.2 3 Este 4 Este 0 -- -- 91
2021-01-07 18:00:00 -1.7 2 Este 6 Sudeste 0 -- -- 86
2021-01-07 17:00:00 -0.5 5 Este 12 Este 0 -- -- 85
2021-01-07 16:00:00 -0.3 5 Este 11 Este 0 -- -- 88
2021-01-07 15:00:00 -1.9 8 Este 10 Sudeste 0 -- -- 94
2021-01-07 14:00:00 -3.5 3 Sudeste 8 Este 0 -- -- 95
2021-01-07 13:00:00 -4.9 3 Sudeste 7 Sudeste 0 -- -- 95
2021-01-07 12:00:00 -6.6 3 Sudeste 7 Sudeste 0 -- -- 95
2021-01-07 11:00:00 -8.2 0 Calma 7 Noroeste 0 -- -- 95
2021-01-07 10:00:00 -9.4 4 Noroeste 9 Noroeste 0 -- -- 94
2021-01-07 09:00:00 -10.1 4 Oeste 9 Noroeste 0 -- -- 95
2021-01-07 08:00:00 -9.1 4 Noroeste 8 Noroeste 0 -- -- 95
2021-01-07 07:00:00 -8.3 3 Noroeste 7 Noroeste 0 -- -- 95
2021-01-07 06:00:00 -8 6 Noroeste 10 Noroeste 0 -- -- 95
2021-01-07 05:00:00 -8 6 Noroeste 9 Noroeste 0 -- -- 95
2021-01-07 04:00:00 -7.7 6 Noroeste 10 Noroeste 0 -- -- 95
2021-01-07 03:00:00 -7.4 8 Noroeste 9 Noroeste 0 -- -- 96
2021-01-07 02:00:00 -7.1 7 Noroeste 9 Noroeste 0 -- -- 95
2021-01-07 01:00:00 -7 0 Calma 7 Noroeste 0 -- -- 95
2021-01-07 00:00:00 -6.9 0 Calma 5 Oeste 0 -- -- 95
2021-01-06 23:00:00 -6.2 2 Oeste 7 Oeste 0 -- -- 95
2021-01-06 22:00:00 -5.2 3 Noroeste 10 Noroeste 0 -- -- 95
2021-01-06 21:00:00 -4.4 4 Oeste 8 Sudoeste 0 -- -- 94
2021-01-06 20:00:00 -3 0 Calma 6 Sudeste 0 -- -- 93
2021-01-06 19:00:00 -1.5 3 Noroeste 6 Noroeste 0 -- -- 87
2021-01-06 18:00:00 1.6 2 Sudeste 10 Este 0 -- -- 78
2021-01-06 17:00:00 3.6 4 Norte 14 Noroeste 0 -- -- 69
2021-01-06 16:00:00 6.1 3 Sudoeste 9 Sudeste 0 -- -- 55
2021-01-06 15:00:00 5.2 3 Nordeste 8 Sudeste 0 -- -- 63
2021-01-06 14:00:00 4.8 4 Sudeste 9 Sudeste 0 -- -- 66
2021-01-06 13:00:00 3 3 Sur 6 Sur 0 -- -- 74
2021-01-06 12:00:00 0.5 2 Oeste 5 Sudoeste 0 -- -- 89
2021-01-06 11:00:00 -1.4 2 Oeste 5 Sudoeste 0 -- -- 97
2021-01-06 10:00:00 -2.5 0 Calma 6 Este 0 -- -- 98
2021-01-06 09:00:00 -3.2 3 Norte 4 Nordeste 0 -- -- 98
2021-01-06 08:00:00 -3.5 0 Calma 6 Noroeste 0 -- -- 97
2021-01-06 07:00:00 -3.6 2 Norte 5 Norte 0 -- -- 97
2021-01-06 06:00:00 -3.4 2 Oeste 6 Sudoeste 0 -- -- 97
2021-01-06 05:00:00 -3.4 4 Oeste 6 Oeste 0 -- -- 97
2021-01-06 04:00:00 -3.3 3 Sudoeste 5 Sudoeste 0 -- -- 97
2021-01-06 03:00:00 -3.4 4 Oeste 5 Oeste 0 -- -- 97
2021-01-06 02:00:00 -3.4 3 Sudoeste 4 Sudoeste 0 -- -- 96
2021-01-06 01:00:00 -2.6 0 Calma 4 Sudoeste 0 -- -- 95
2021-01-06 00:00:00 -2.3 2 Este 6 Noroeste 0 -- -- 94
2021-01-05 23:00:00 -2 4 Oeste 11 Oeste 0 -- -- 95
2021-01-05 22:00:00 -2.1 2 Oeste 10 Oeste 0 -- -- 95
2021-01-05 21:00:00 -2.1 5 Sudoeste 7 Oeste 0 -- -- 94
2021-01-05 20:00:00 -1.7 3 Norte 6 Este 0 -- -- 92
2021-01-05 19:00:00 -0.7 4 Noroeste 6 Sudeste 0 -- -- 89
2021-01-05 18:00:00 0.6 5 Este 11 Este 0 -- -- 85
2021-01-05 17:00:00 1.3 8 Este 10 Este 0 -- -- 80
2021-01-05 16:00:00 4.2 6 Sudeste 8 Este 0 -- -- 67
2021-01-05 15:00:00 3.1 3 Este 13 Sudeste 0 -- -- 74
2021-01-05 14:00:00 1.5 8 Este 13 Este 0 -- -- 79
2021-01-05 13:00:00 -0.2 0 Calma 5 Sudeste 0 -- -- 84
2021-01-05 12:00:00 -1.9 3 Noroeste 7 Noroeste 0 -- -- 89
2021-01-05 11:00:00 -3.4 3 Sudoeste 6 Sudoeste 0 -- -- 95
2021-01-05 10:00:00 -4.6 3 Noroeste 6 Noroeste 0 -- -- 96
2021-01-05 09:00:00 -5.4 5 Oeste 8 Oeste 0 -- -- 96
2021-01-05 08:00:00 -5.7 2 Oeste 9 Oeste 0 -- -- 96
2021-01-05 07:00:00 -5.6 4 Oeste 8 Oeste 0 -- -- 96
2021-01-05 06:00:00 -5.3 5 Oeste 9 Oeste 0 -- -- 96
2021-01-05 05:00:00 -5.2 0 Calma 6 Oeste 0 -- -- 96
2021-01-05 04:00:00 -5 3 Oeste 6 Noroeste 0 -- -- 97
2021-01-05 03:00:00 -5.9 3 Oeste 7 Oeste 0 -- -- 96
2021-01-05 02:00:00 -6 4 Oeste 6 Este 0 -- -- 96
2021-01-05 01:00:00 -6 0 Calma 8 Oeste 0 -- -- 96
2021-01-05 00:00:00 -5.7 4 Sudoeste 9 Sudoeste 0 -- -- 95
2021-01-04 23:00:00 -4.3 0 Calma 5 Sudoeste 0 -- -- 95
2021-01-04 22:00:00 -2.7 0 Calma 8 Oeste 0 -- -- 97
2021-01-04 21:00:00 -3 4 Oeste 6 Oeste 0 -- -- 96
2021-01-04 20:00:00 -2.6 0 Calma 6 Sudoeste 0 -- -- 95
2021-01-04 19:00:00 -1.1 0 Calma 13 Noroeste 0.2 -- -- 94
2021-01-04 18:00:00 -0.4 6 Noroeste 12 Noroeste 0.4 -- -- 94
2021-01-04 17:00:00 0.1 5 Oeste 16 Oeste 0.2 -- -- 93
2021-01-04 16:00:00 2 2 Este 8 Norte 0 -- -- 86
2021-01-04 15:00:00 0.6 0 Calma 10 Oeste 0.2 -- -- 95
2021-01-04 14:00:00 0.3 3 Noroeste 6 Oeste 0 -- -- 95
2021-01-04 13:00:00 -1.8 0 Calma 5 Noroeste 1.2 -- -- 96
2021-01-04 12:00:00 -2.8 3 Sudoeste 5 Sudoeste 0.6 -- -- 97
2021-01-04 11:00:00 -4.8 3 Nordeste 8 Oeste 0 -- -- 95
2021-01-04 10:00:00 -7.2 5 Oeste 10 Oeste 0 -- -- 95
2021-01-04 09:00:00 -8.4 2 Noroeste 7 Noroeste 0 -- -- 95
2021-01-04 08:00:00 -7.7 0 Calma 6 Este 0 -- -- 95
2021-01-04 07:00:00 -7.4 4 Oeste 12 Noroeste 0 -- -- 95
2021-01-04 06:00:00 -6.8 4 Oeste 10 Oeste 0 -- -- 96
2021-01-04 05:00:00 -6.4 4 Oeste 7 Noroeste 0 -- -- 96
2021-01-04 04:00:00 -5.8 4 Este 8 Oeste 0 -- -- 97
2021-01-04 03:00:00 -5.1 5 Noroeste 10 Oeste 0 -- -- 97
2021-01-04 02:00:00 -4.6 6 Oeste 10 Noroeste 0 -- -- 97
2021-01-04 01:00:00 -3.8 3 Noroeste 9 Noroeste 0 -- -- 97
2021-01-04 00:00:00 -3.8 2 Nordeste 9 Oeste 0 -- -- 97
2021-01-03 23:00:00 -3.9 6 Oeste 7 Oeste 0 -- -- 96
2021-01-03 22:00:00 -3.1 5 Noroeste 8 Este 0 -- -- 96
2021-01-03 21:00:00 -1.7 6 Norte 9 Oeste 0 -- -- 96
2021-01-03 20:00:00 -1 3 Noroeste 10 Este 0.2 -- -- 94
2021-01-03 19:00:00 0.2 6 Este 14 Este 0 -- -- 95
2021-01-03 18:00:00 0.8 4 Este 24 Noroeste 0.2 -- -- 93
2021-01-03 17:00:00 2.1 4 Sudoeste 14 Nordeste 0 -- -- 86
2021-01-03 16:00:00 3.4 3 Este 9 Oeste 0 -- -- 78
2021-01-03 15:00:00 4 3 Este 12 Este 0 -- -- 77
2021-01-03 14:00:00 3.2 6 Sudeste 8 Sudeste 0 -- -- 81
2021-01-03 13:00:00 1.5 2 Sudeste 9 Este 0 -- -- 84
2021-01-03 12:00:00 1.3 0 Calma 4 Sudoeste 0 -- -- 88
2021-01-03 11:00:00 -2 3 Oeste 8 Nordeste 0 -- -- 95
2021-01-03 10:00:00 -3.3 4 Este 5 Nordeste 0 -- -- 97
2021-01-03 09:00:00 -3.9 5 Este 6 Noroeste 0 -- -- 97
2021-01-03 08:00:00 -4.1 3 Oeste 6 Norte 0 -- -- 96
2021-01-03 07:00:00 -3.3 3 Oeste 6 Sudoeste 0 -- -- 97
2021-01-03 06:00:00 -2.8 4 Oeste 10 Sudoeste 0.2 -- -- 97
2021-01-03 05:00:00 -3 4 Noroeste 6 Sudoeste 0.2 -- -- 97
2021-01-03 04:00:00 -3.3 3 Noroeste 9 Sudoeste 0.2 -- -- 97
2021-01-03 03:00:00 -3.6 3 Sudoeste 8 Sudoeste 0.2 -- -- 96
2021-01-03 02:00:00 -3.1 4 Oeste 6 Oeste 0 -- -- 96
2021-01-03 01:00:00 -2.1 4 Oeste 6 Noroeste 0 -- -- 97
2021-01-03 00:00:00 -2 4 Oeste 6 Oeste 0 -- -- 97
2021-01-02 23:00:00 -1.6 3 Oeste 4 Oeste 0.2 -- -- 97
2021-01-02 22:00:00 -1.5 3 Sudoeste 5 Oeste 0 -- -- 96
2021-01-02 21:00:00 -1.2 4 Oeste 6 Noroeste 0 -- -- 96
2021-01-02 20:00:00 -1 3 Noroeste 5 Sudoeste 0 -- -- 96
2021-01-02 19:00:00 -0.6 3 Oeste 5 Oeste 0.2 -- -- 96
2021-01-02 18:00:00 -0.3 0 Calma 6 Sudoeste 0.6 -- -- 96
2021-01-02 17:00:00 -0.2 4 Oeste 15 Noroeste 1 -- -- 96
2021-01-02 16:00:00 -0.3 3 Sudoeste 27 Noroeste 2.4 -- -- 95
2021-01-02 15:00:00 0 4 Noroeste 21 Norte 2 -- -- 94
2021-01-02 14:00:00 0.1 6 Noroeste 31 Norte 1.8 -- -- 93